HomeShort term forecast

Short term forecast

Graphical weather forecast for the next 48 hours for Montreal:

Short term forecast

This weather forecast is automatically refreshed every 3 hours.

Hourly Experimental Forecast for the next 48 hours ®

Overall summary: Rain starting this evening, continuing until tomorrow morning.

 Date & Hour   Temp   Feel   Baro   Hum   Speed & Bearing   Wind Gust   Precip.%   Precip.   Visibility   Cloud cover   Conditions 
 23/09/2021 - 17:00  26.9°C  27.6°C  1012.0 hPa  54%  23.4 km/h   43.1 km/h  14%  --  16.1km  80%  Mostly Cloudy 
 23/09/2021 - 18:00  26.0°C  26.2°C  1012.1 hPa  57%  21.7 km/h   42.2 km/h  20%  0.06 mm/h  16.1km  83%  Mostly Cloudy 
 23/09/2021 - 19:00  24.9°C  25.0°C  1012.3 hPa  61%  21.7 km/h   40.4 km/h  19%  0.05 mm/h  16.1km  84%  Mostly Cloudy 
 23/09/2021 - 20:00  24.2°C  24.5°C  1012.3 hPa  66%  19.3 km/h   33.2 km/h  28%  0.08 mm/h  16.1km  83%  Possible Drizzle 
 23/09/2021 - 21:00  23.8°C  24.0°C  1012.3 hPa  68%  21.4 km/h   39.3 km/h  25%  0.11 mm/h  16.1km  73%  Possible Drizzle 
 23/09/2021 - 22:00  23.2°C  23.4°C  1012.4 hPa  71%  21.5 km/h   39.8 km/h  22%  0.18 mm/h  16.1km  80%  Mostly Cloudy 
 23/09/2021 - 23:00  22.8°C  23.0°C  1012.3 hPa  71%  21.8 km/h   40.7 km/h  26%  0.28 mm/h  16.1km  65%  Possible Light Rain 
 24/09/2021 - 00:00  22.4°C  22.6°C  1012.2 hPa  74%  21.8 km/h   41.6 km/h  48%  0.66 mm/h  16.1km  86%  Possible Light Rain 
 24/09/2021 - 01:00  21.8°C  22.1°C  1012.1 hPa  78%  21.8 km/h   45.3 km/h  71%  1.39 mm/h  16.1km  92%  Rain 
 24/09/2021 - 02:00  21.1°C  21.4°C  1012.3 hPa  81%  20.3 km/h   43.1 km/h  80%  2.20 mm/h  16.1km  95%  Rain 
 24/09/2021 - 03:00  20.5°C  20.8°C  1012.2 hPa  86%  19.1 km/h   38.7 km/h  83%  3.73 mm/h  12.5km  98%  Rain 
 24/09/2021 - 04:00  20.0°C  20.3°C  1012.1 hPa  89%  17.1 km/h   34.1 km/h  85%  4.45 mm/h  9.6km  99%  Rain 
 24/09/2021 - 05:00  19.6°C  20.1°C  1011.8 hPa  94%  16.3 km/h   32.1 km/h  84%  4.79 mm/h  8.3km  100%  Rain 
 24/09/2021 - 06:00  18.5°C  18.8°C  1012.2 hPa  94%  16.0 km/h   32.7 km/h  82%  3.83 mm/h  6.2km  100%  Rain 
 24/09/2021 - 07:00  17.2°C  17.4°C  1012.8 hPa  94%  15.7 km/h   35.5 km/h  76%  2.94 mm/h  5.5km  100%  Rain 
 24/09/2021 - 08:00  15.9°C  16.0°C  1013.7 hPa  95%  13.9 km/h   33.3 km/h  67%  2.15 mm/h  6.1km  100%  Rain 
 24/09/2021 - 09:00  15.5°C  15.5°C  1014.1 hPa  94%  12.5 km/h   29.8 km/h  63%  1.49 mm/h  6.2km  100%  Rain 
 24/09/2021 - 10:00  15.4°C  15.4°C  1014.5 hPa  90%  11.2 km/h   26.2 km/h  48%  0.89 mm/h  7.9km  99%  Possible Light Rain 
 24/09/2021 - 11:00  15.9°C  15.9°C  1014.6 hPa  84%  10.5 km/h   23.5 km/h  27%  0.62 mm/h  10.8km  72%  Possible Light Rain 
 24/09/2021 - 12:00  16.6°C  16.6°C  1014.7 hPa  79%  10.8 km/h   22.9 km/h  18%  0.31 mm/h  13.8km  82%  Mostly Cloudy 
 24/09/2021 - 13:00  17.5°C  17.5°C  1014.5 hPa  75%  11.8 km/h   23.2 km/h  11%  0.23 mm/h  16.1km  71%  Mostly Cloudy 
 24/09/2021 - 14:00  18.7°C  18.7°C  1014.1 hPa  68%  13.8 km/h   28.2 km/h  5%  0.12 mm/h  16.1km  68%  Mostly Cloudy 
 24/09/2021 - 15:00  19.6°C  19.6°C  1014.4 hPa  63%  14.7 km/h   29.0 km/h  0%  --  16.1km  44%  Partly Cloudy 
 24/09/2021 - 16:00  20.2°C  20.2°C  1014.4 hPa  59%  15.2 km/h   29.0 km/h  0%  --  16.1km  41%  Partly Cloudy 
 24/09/2021 - 17:00  20.0°C  20.0°C  1014.6 hPa  58%  15.1 km/h   28.6 km/h  0%  --  16.1km  40%  Partly Cloudy 
 24/09/2021 - 18:00  19.0°C  19.0°C  1015.1 hPa  61%  14.1 km/h   26.2 km/h  0%  --  16.1km  38%  Partly Cloudy 
 24/09/2021 - 19:00  17.5°C  17.5°C  1015.7 hPa  64%  12.3 km/h   23.0 km/h  0%  --  16.1km  41%  Partly Cloudy 
 24/09/2021 - 20:00  17.0°C  17.0°C  1016.3 hPa  67%  12.9 km/h   32.9 km/h  0%  --  16.1km  36%  Partly Cloudy 
 24/09/2021 - 21:00  16.4°C  16.4°C  1016.6 hPa  70%  12.7 km/h   34.5 km/h  0%  --  16.1km  32%  Partly Cloudy 
 24/09/2021 - 22:00  16.0°C  16.0°C  1016.9 hPa  72%  12.7 km/h   36.5 km/h  0%  --  16.1km  31%  Clear 
 24/09/2021 - 23:00  15.6°C  15.6°C  1017.0 hPa  73%  12.4 km/h   36.9 km/h  0%  --  16.1km  27%  Clear 
 25/09/2021 - 00:00  15.3°C  15.3°C  1016.9 hPa  74%  11.8 km/h   34.7 km/h  0%  --  16.1km  29%  Clear 
 25/09/2021 - 01:00  15.0°C  15.0°C  1017.0 hPa  76%  10.9 km/h   31.0 km/h  0%  --  16.1km  33%  Partly Cloudy 
 25/09/2021 - 02:00  14.0°C  14.0°C  1017.3 hPa  77%  8.7 km/h   17.2 km/h  0%  --  16.1km  25%  Clear 
 25/09/2021 - 03:00  13.6°C  13.6°C  1017.4 hPa  79%  7.6 km/h   13.4 km/h  0%  --  16.1km  16%  Clear 
 25/09/2021 - 04:00  13.3°C  13.3°C  1017.5 hPa  82%  6.6 km/h   11.2 km/h  0%  --  16.1km  13%  Clear 
 25/09/2021 - 05:00  12.8°C  12.8°C  1017.7 hPa  86%  5.7 km/h   9.3 km/h  0%  --  16.1km  19%  Clear 
 25/09/2021 - 06:00  12.2°C  12.2°C  1018.1 hPa  89%  5.0 km/h   8.1 km/h  0%  --  16.1km  20%  Clear 
 25/09/2021 - 07:00  11.9°C  11.9°C  1018.7 hPa  91%  4.3 km/h   7.8 km/h  0%  --  16.1km  21%  Clear 
 25/09/2021 - 08:00  12.5°C  12.5°C  1018.7 hPa  91%  3.1 km/h   3.4 km/h  4%  0.01 mm/h  16.1km  22%  Clear 
 25/09/2021 - 09:00  13.8°C  13.8°C  1018.9 hPa  86%  3.4 km/h   4.7 km/h  0%  --  16.1km  30%  Clear 
 25/09/2021 - 10:00  15.4°C  15.4°C  1018.4 hPa  82%  4.1 km/h   6.7 km/h  0%  --  16.1km  40%  Partly Cloudy 
 25/09/2021 - 11:00  17.0°C  17.0°C  1018.0 hPa  75%  4.7 km/h   8.2 km/h  0%  --  16.1km  49%  Partly Cloudy 
 25/09/2021 - 12:00  18.0°C  18.0°C  1017.4 hPa  69%  5.0 km/h   8.8 km/h  0%  --  16.1km  50%  Partly Cloudy 
 25/09/2021 - 13:00  18.9°C  18.9°C  1016.6 hPa  64%  5.1 km/h   8.7 km/h  0%  --  16.1km  50%  Partly Cloudy 
 25/09/2021 - 14:00  19.8°C  19.8°C  1015.8 hPa  60%  6.0 km/h   11.4 km/h  0%  --  16.1km  56%  Partly Cloudy 
 25/09/2021 - 15:00  20.5°C  20.5°C  1015.2 hPa  56%  6.0 km/h   10.0 km/h  0%  --  16.1km  67%  Mostly Cloudy 
 25/09/2021 - 16:00  20.9°C  20.9°C  1014.6 hPa  55%  6.4 km/h   9.1 km/h  0%  --  16.1km  70%  Mostly Cloudy 

 

Past weather and reports

Past weatherFind in this section the past weather conditions, weather archive, graphics, reports and statistics.

Current conditions

Current weather condition for MontrealAll you need to know about the current weather conditions for Montreal. Weather data is updated every 10 minutes.

Weather forecast

Current Montreal weatherSince 2004, celinium.com website has provided accurate weather forecast for Montreal's island.